sensor_id;sensor_type;location;lat;lon;timestamp;pressure;altitude;pressure_sealevel;temperature;humidity
3294;BME280;1659;51.470;6.770;2023-08-07T00:02:17;100979.75;;;13.18;100.00
3294;BME280;1659;51.470;6.770;2023-08-07T00:04:45;100973.53;;;13.19;100.00
3294;BME280;1659;51.470;6.770;2023-08-07T00:07:12;100973.53;;;13.19;100.00
3294;BME280;1659;51.470;6.770;2023-08-07T00:09:38;100972.63;;;13.20;100.00
3294;BME280;1659;51.470;6.770;2023-08-07T00:12:05;100974.41;;;13.20;100.00
3294;BME280;1659;51.470;6.770;2023-08-07T00:14:32;100969.97;;;13.20;100.00
3294;BME280;1659;51.470;6.770;2023-08-07T00:16:58;100979.69;;;13.21;100.00
3294;BME280;1659;51.470;6.770;2023-08-07T00:19:25;100984.06;;;13.22;100.00
3294;BME280;1659;51.470;6.770;2023-08-07T00:21:53;100990.31;;;13.21;100.00
3294;BME280;1659;51.470;6.770;2023-08-07T00:24:19;100977.06;;;13.20;100.00
3294;BME280;1659;51.470;6.770;2023-08-07T00:26:46;100986.81;;;13.19;100.00
3294;BME280;1659;51.470;6.770;2023-08-07T00:29:13;100987.72;;;13.18;100.00
3294;BME280;1659;51.470;6.770;2023-08-07T00:31:39;100984.19;;;13.18;100.00
3294;BME280;1659;51.470;6.770;2023-08-07T00:34:06;100987.75;;;13.17;100.00
3294;BME280;1659;51.470;6.770;2023-08-07T00:36:34;100986.88;;;13.16;100.00
3294;BME280;1659;51.470;6.770;2023-08-07T00:39:02;100988.69;;;13.16;100.00
3294;BME280;1659;51.470;6.770;2023-08-07T00:41:29;100992.19;;;13.16;100.00
3294;BME280;1659;51.470;6.770;2023-08-07T00:43:56;100988.69;;;13.16;100.00
3294;BME280;1659;51.470;6.770;2023-08-07T00:46:22;100999.28;;;13.16;100.00
3294;BME280;1659;51.470;6.770;2023-08-07T00:48:51;101002.81;;;13.16;100.00
3294;BME280;1659;51.470;6.770;2023-08-07T00:51:18;100998.44;;;13.14;100.00
3294;BME280;1659;51.470;6.770;2023-08-07T00:53:45;101000.22;;;13.13;100.00
3294;BME280;1659;51.470;6.770;2023-08-07T00:56:14;100999.38;;;13.13;100.00
3294;BME280;1659;51.470;6.770;2023-08-07T00:58:44;100999.38;;;13.13;100.00
3294;BME280;1659;51.470;6.770;2023-08-07T01:01:11;101001.09;;;13.14;100.00
3294;BME280;1659;51.470;6.770;2023-08-07T01:03:37;101001.09;;;13.14;100.00
3294;BME280;1659;51.470;6.770;2023-08-07T01:06:04;100999.28;;;13.16;100.00
3294;BME280;1659;51.470;6.770;2023-08-07T01:08:31;101002.81;;;13.16;100.00
3294;BME280;1659;51.470;6.770;2023-08-07T01:11:10;100998.38;;;13.17;100.00
3294;BME280;1659;51.470;6.770;2023-08-07T01:13:51;101003.66;;;13.17;100.00
3294;BME280;1659;51.470;6.770;2023-08-07T01:16:26;101001.88;;;13.17;100.00
3294;BME280;1659;51.470;6.770;2023-08-07T01:18:56;100996.56;;;13.17;100.00
3294;BME280;1659;51.470;6.770;2023-08-07T01:21:23;100999.19;;;13.19;100.00
3294;BME280;1659;51.470;6.770;2023-08-07T01:23:53;101003.63;;;13.18;100.00
3294;BME280;1659;51.470;6.770;2023-08-07T01:26:20;101000.09;;;13.19;100.00
3294;BME280;1659;51.470;6.770;2023-08-07T01:28:54;100998.28;;;13.20;100.00
3294;BME280;1659;51.470;6.770;2023-08-07T01:31:24;100996.53;;;13.19;100.00
3294;BME280;1659;51.470;6.770;2023-08-07T01:33:57;101007.16;;;13.19;100.00
3294;BME280;1659;51.470;6.770;2023-08-07T01:36:27;101010.72;;;13.18;100.00
3294;BME280;1659;51.470;6.770;2023-08-07T01:38:57;101000.16;;;13.16;100.00
3294;BME280;1659;51.470;6.770;2023-08-07T01:41:25;100996.66;;;13.16;100.00
3294;BME280;1659;51.470;6.770;2023-08-07T01:43:53;100983.41;;;13.14;100.00
3294;BME280;1659;51.470;6.770;2023-08-07T01:46:20;100999.34;;;13.14;100.00
3294;BME280;1659;51.470;6.770;2023-08-07T01:48:47;100995.78;;;13.14;100.00
3294;BME280;1659;51.470;6.770;2023-08-07T01:51:13;100991.41;;;13.13;100.00
3294;BME280;1659;51.470;6.770;2023-08-07T01:53:40;100994.06;;;13.13;100.00
3294;BME280;1659;51.470;6.770;2023-08-07T01:56:08;101001.09;;;13.14;100.00
3294;BME280;1659;51.470;6.770;2023-08-07T01:58:34;101008.22;;;13.12;100.00
3294;BME280;1659;51.470;6.770;2023-08-07T02:01:01;101005.56;;;13.12;100.00
3294;BME280;1659;51.470;6.770;2023-08-07T02:03:27;101010.91;;;13.10;100.00
3294;BME280;1659;51.470;6.770;2023-08-07T02:05:54;101005.72;;;13.07;100.00
3294;BME280;1659;51.470;6.770;2023-08-07T02:08:20;101011.91;;;13.06;100.00
3294;BME280;1659;51.470;6.770;2023-08-07T02:10:47;101009.28;;;13.04;100.00
3294;BME280;1659;51.470;6.770;2023-08-07T02:13:15;101014.63;;;13.03;100.00
3294;BME280;1659;51.470;6.770;2023-08-07T02:15:41;101015.59;;;13.00;100.00
3294;BME280;1659;51.470;6.770;2023-08-07T02:18:08;101021.78;;;12.99;100.00
3294;BME280;1659;51.470;6.770;2023-08-07T02:20:34;101020.06;;;12.98;100.00
3294;BME280;1659;51.470;6.770;2023-08-07T02:23:01;101027.25;;;12.95;100.00
3294;BME280;1659;51.470;6.770;2023-08-07T02:25:27;101029.03;;;12.93;100.00
3294;BME280;1659;51.470;6.770;2023-08-07T02:27:54;101029.13;;;12.90;100.00
3294;BME280;1659;51.470;6.770;2023-08-07T02:30:23;101032.69;;;12.89;100.00
3294;BME280;1659;51.470;6.770;2023-08-07T02:32:56;101032.75;;;12.85;100.00
3294;BME280;1659;51.470;6.770;2023-08-07T02:35:23;101033.66;;;12.84;100.00
3294;BME280;1659;51.470;6.770;2023-08-07T02:37:52;101036.34;;;12.83;100.00
3294;BME280;1659;51.470;6.770;2023-08-07T02:40:18;101045.22;;;12.82;100.00
3294;BME280;1659;51.470;6.770;2023-08-07T02:42:45;101037.25;;;12.82;100.00
3294;BME280;1659;51.470;6.770;2023-08-07T02:45:11;101035.53;;;12.81;100.00
3294;BME280;1659;51.470;6.770;2023-08-07T02:47:39;101036.41;;;12.80;100.00
3294;BME280;1659;51.470;6.770;2023-08-07T02:50:06;101039.03;;;12.81;100.00
3294;BME280;1659;51.470;6.770;2023-08-07T02:52:33;101040.81;;;12.81;100.00
3294;BME280;1659;51.470;6.770;2023-08-07T02:54:59;101049.69;;;12.80;100.00
3294;BME280;1659;51.470;6.770;2023-08-07T02:57:26;101044.38;;;12.80;100.00
3294;BME280;1659;51.470;6.770;2023-08-07T02:59:52;101045.25;;;12.80;100.00
3294;BME280;1659;51.470;6.770;2023-08-07T03:02:19;101053.22;;;12.79;100.00
3294;BME280;1659;51.470;6.770;2023-08-07T03:04:47;101052.34;;;12.80;100.00
3294;BME280;1659;51.470;6.770;2023-08-07T03:07:13;101054.97;;;12.80;100.00
3294;BME280;1659;51.470;6.770;2023-08-07T03:09:40;101046.13;;;12.81;100.00
3294;BME280;1659;51.470;6.770;2023-08-07T03:12:07;101050.50;;;12.82;100.00
3294;BME280;1659;51.470;6.770;2023-08-07T03:14:34;101040.75;;;12.82;100.00
3294;BME280;1659;51.470;6.770;2023-08-07T03:17:00;101049.69;;;12.80;100.00
3294;BME280;1659;51.470;6.770;2023-08-07T03:19:27;101052.28;;;12.81;100.00
3294;BME280;1659;51.470;6.770;2023-08-07T03:21:55;101039.06;;;12.80;100.00
3294;BME280;1659;51.470;6.770;2023-08-07T03:24:21;101044.38;;;12.80;100.00
3294;BME280;1659;51.470;6.770;2023-08-07T03:26:48;101048.81;;;12.79;100.00
3294;BME280;1659;51.470;6.770;2023-08-07T03:29:15;101044.38;;;12.80;100.00
3294;BME280;1659;51.470;6.770;2023-08-07T03:31:41;101042.63;;;12.79;100.00
3294;BME280;1659;51.470;6.770;2023-08-07T03:34:08;101042.63;;;12.79;100.00
3294;BME280;1659;51.470;6.770;2023-08-07T03:36:34;101047.94;;;12.79;100.00
3294;BME280;1659;51.470;6.770;2023-08-07T03:39:02;101052.34;;;12.80;100.00
3294;BME280;1659;51.470;6.770;2023-08-07T03:41:29;101042.56;;;12.82;100.00
3294;BME280;1659;51.470;6.770;2023-08-07T03:43:55;101048.72;;;12.82;100.00
3294;BME280;1659;51.470;6.770;2023-08-07T03:46:22;101055.81;;;12.82;100.00
3294;BME280;1659;51.470;6.770;2023-08-07T03:48:48;101038.22;;;12.79;100.00
3294;BME280;1659;51.470;6.770;2023-08-07T03:51:15;101048.81;;;12.79;100.00
3294;BME280;1659;51.470;6.770;2023-08-07T03:53:42;101056.75;;;12.81;100.00
3294;BME280;1659;51.470;6.770;2023-08-07T03:56:10;101048.81;;;12.79;100.00
3294;BME280;1659;51.470;6.770;2023-08-07T03:58:36;101062.88;;;12.83;100.00
3294;BME280;1659;51.470;6.770;2023-08-07T04:01:03;101056.69;;;12.82;100.00
3294;BME280;1659;51.470;6.770;2023-08-07T04:03:29;101058.44;;;12.83;100.00
3294;BME280;1659;51.470;6.770;2023-08-07T04:05:56;101059.28;;;12.84;100.00
3294;BME280;1659;51.470;6.770;2023-08-07T04:08:23;101059.28;;;12.84;100.00
3294;BME280;1659;51.470;6.770;2023-08-07T04:10:58;101060.19;;;12.84;100.00
3294;BME280;1659;51.470;6.770;2023-08-07T04:13:27;101052.25;;;12.83;100.00
3294;BME280;1659;51.470;6.770;2023-08-07T04:15:53;101065.56;;;12.81;100.00
3294;BME280;1659;51.470;6.770;2023-08-07T04:18:20;101051.44;;;12.81;100.00
3294;BME280;1659;51.470;6.770;2023-08-07T04:20:48;101048.78;;;12.81;100.00
3294;BME280;1659;51.470;6.770;2023-08-07T04:23:15;101048.72;;;12.82;100.00
3294;BME280;1659;51.470;6.770;2023-08-07T04:25:42;101059.31;;;12.82;100.00
3294;BME280;1659;51.470;6.770;2023-08-07T04:28:08;101053.09;;;12.85;100.00
3294;BME280;1659;51.470;6.770;2023-08-07T04:30:36;101057.50;;;12.86;100.00
3294;BME280;1659;51.470;6.770;2023-08-07T04:33:03;101056.56;;;12.87;100.00
3294;BME280;1659;51.470;6.770;2023-08-07T04:35:30;101049.47;;;12.88;100.00
3294;BME280;1659;51.470;6.770;2023-08-07T04:37:56;101053.00;;;12.90;100.00
3294;BME280;1659;51.470;6.770;2023-08-07T04:40:23;101065.34;;;12.91;100.00
3294;BME280;1659;51.470;6.770;2023-08-07T04:42:49;101063.53;;;12.91;100.00
3294;BME280;1659;51.470;6.770;2023-08-07T04:45:16;101054.69;;;12.92;100.00
3294;BME280;1659;51.470;6.770;2023-08-07T04:47:44;101059.09;;;12.93;100.00
3294;BME280;1659;51.470;6.770;2023-08-07T04:50:11;101054.66;;;12.94;100.00
3294;BME280;1659;51.470;6.770;2023-08-07T04:52:38;101057.31;;;12.94;100.00
3294;BME280;1659;51.470;6.770;2023-08-07T04:55:05;101054.66;;;12.94;100.00
3294;BME280;1659;51.470;6.770;2023-08-07T04:57:31;101069.69;;;12.95;100.00
3294;BME280;1659;51.470;6.770;2023-08-07T04:59:58;101061.72;;;12.95;100.00
3294;BME280;1659;51.470;6.770;2023-08-07T05:02:24;101064.38;;;12.95;100.00
3294;BME280;1659;51.470;6.770;2023-08-07T05:04:52;101053.78;;;12.93;100.00
3294;BME280;1659;51.470;6.770;2023-08-07T05:07:19;101062.72;;;12.89;100.00
3294;BME280;1659;51.470;6.770;2023-08-07T05:09:45;101058.38;;;12.87;100.00
3294;BME280;1659;51.470;6.770;2023-08-07T05:12:12;101063.75;;;12.83;100.00
3294;BME280;1659;51.470;6.770;2023-08-07T05:14:38;101059.41;;;12.81;100.00
3294;BME280;1659;51.470;6.770;2023-08-07T05:17:05;101054.19;;;12.76;100.00
3294;BME280;1659;51.470;6.770;2023-08-07T05:19:32;101049.88;;;12.72;100.00
3294;BME280;1659;51.470;6.770;2023-08-07T05:21:59;101064.91;;;12.70;100.00
3294;BME280;1659;51.470;6.770;2023-08-07T05:24:26;101069.38;;;12.68;100.00
3294;BME280;1659;51.470;6.770;2023-08-07T05:26:53;101065.03;;;12.65;100.00
3294;BME280;1659;51.470;6.770;2023-08-07T05:29:19;101048.31;;;12.63;100.00
3294;BME280;1659;51.470;6.770;2023-08-07T05:31:46;101059.84;;;12.61;100.00
3294;BME280;1659;51.470;6.770;2023-08-07T05:34:12;101071.38;;;12.60;100.00
3294;BME280;1659;51.470;6.770;2023-08-07T05:36:39;101061.63;;;12.60;100.00
3294;BME280;1659;51.470;6.770;2023-08-07T05:39:07;101065.16;;;12.59;100.00
3294;BME280;1659;51.470;6.770;2023-08-07T05:41:34;101074.91;;;12.59;100.00
3294;BME280;1659;51.470;6.770;2023-08-07T05:44:01;101083.72;;;12.59;100.00
3294;BME280;1659;51.470;6.770;2023-08-07T05:46:27;101090.81;;;12.59;100.00
3294;BME280;1659;51.470;6.770;2023-08-07T05:48:54;101088.16;;;12.59;100.00
3294;BME280;1659;51.470;6.770;2023-08-07T05:51:20;101112.84;;;12.61;100.00
3294;BME280;1659;51.470;6.770;2023-08-07T05:53:47;101089.84;;;12.61;100.00
3294;BME280;1659;51.470;6.770;2023-08-07T05:56:15;101102.22;;;12.62;100.00
3294;BME280;1659;51.470;6.770;2023-08-07T05:58:43;101098.63;;;12.65;100.00
3294;BME280;1659;51.470;6.770;2023-08-07T06:01:09;101090.59;;;12.68;100.00
3294;BME280;1659;51.470;6.770;2023-08-07T06:03:37;101096.69;;;12.72;100.00
3294;BME280;1659;51.470;6.770;2023-08-07T06:06:04;101101.06;;;12.76;100.00
3294;BME280;1659;51.470;6.770;2023-08-07T06:08:30;101096.59;;;12.78;100.00
3294;BME280;1659;51.470;6.770;2023-08-07T06:10:57;101106.25;;;12.79;100.00
3294;BME280;1659;51.470;6.770;2023-08-07T06:13:25;101100.91;;;12.82;100.00
3294;BME280;1659;51.470;6.770;2023-08-07T06:15:51;101110.59;;;12.84;100.00
3294;BME280;1659;51.470;6.770;2023-08-07T06:18:18;101108.78;;;12.85;100.00
3294;BME280;1659;51.470;6.770;2023-08-07T06:20:44;101112.25;;;12.89;100.00
3294;BME280;1659;51.470;6.770;2023-08-07T06:23:11;101120.16;;;12.92;100.00
3294;BME280;1659;51.470;6.770;2023-08-07T06:25:38;101121.81;;;12.96;100.00
3294;BME280;1659;51.470;6.770;2023-08-07T06:28:04;101127.91;;;12.99;100.00
3294;BME280;1659;51.470;6.770;2023-08-07T06:30:32;101129.59;;;13.03;100.00
3294;BME280;1659;51.470;6.770;2023-08-07T06:32:59;101127.69;;;13.09;100.00
3294;BME280;1659;51.470;6.770;2023-08-07T06:35:26;101133.81;;;13.12;100.00
3294;BME280;1659;51.470;6.770;2023-08-07T06:37:52;101138.25;;;13.12;100.00
3294;BME280;1659;51.470;6.770;2023-08-07T06:40:19;101141.72;;;13.14;100.00
3294;BME280;1659;51.470;6.770;2023-08-07T06:42:45;101137.31;;;13.14;100.00
3294;BME280;1659;51.470;6.770;2023-08-07T06:45:12;101147.91;;;13.16;100.00
3294;BME280;1659;51.470;6.770;2023-08-07T06:47:40;101136.34;;;13.17;100.00
3294;BME280;1659;51.470;6.770;2023-08-07T06:50:07;101144.25;;;13.20;100.00
3294;BME280;1659;51.470;6.770;2023-08-07T06:52:33;101148.59;;;13.22;100.00
3294;BME280;1659;51.470;6.770;2023-08-07T06:55:00;101152.97;;;13.25;100.00
3294;BME280;1659;51.470;6.770;2023-08-07T06:57:27;101152.13;;;13.25;100.00
3294;BME280;1659;51.470;6.770;2023-08-07T06:59:53;101156.53;;;13.24;100.00
3294;BME280;1659;51.470;6.770;2023-08-07T07:02:20;101153.00;;;13.23;100.00
3294;BME280;1659;51.470;6.770;2023-08-07T07:04:48;101162.72;;;13.25;100.00
3294;BME280;1659;51.470;6.770;2023-08-07T07:07:16;101172.44;;;13.24;100.00
3294;BME280;1659;51.470;6.770;2023-08-07T07:09:42;101171.63;;;13.22;100.00
3294;BME280;1659;51.470;6.770;2023-08-07T07:12:09;101168.94;;;13.23;100.00
3294;BME280;1659;51.470;6.770;2023-08-07T07:14:35;101174.19;;;13.27;100.00
3294;BME280;1659;51.470;6.770;2023-08-07T07:17:05;101166.19;;;13.28;100.00
3294;BME280;1659;51.470;6.770;2023-08-07T07:19:32;101180.34;;;13.27;100.00
3294;BME280;1659;51.470;6.770;2023-08-07T07:21:59;101168.88;;;13.27;100.00
3294;BME280;1659;51.470;6.770;2023-08-07T07:24:26;101181.19;;;13.29;100.00
3294;BME280;1659;51.470;6.770;2023-08-07T07:26:53;101191.78;;;13.29;100.00
3294;BME280;1659;51.470;6.770;2023-08-07T07:29:20;101192.72;;;13.28;100.00
3294;BME280;1659;51.470;6.770;2023-08-07T07:31:46;101190.97;;;13.27;100.00
3294;BME280;1659;51.470;6.770;2023-08-07T07:34:13;101199.72;;;13.31;100.00
3294;BME280;1659;51.470;6.770;2023-08-07T07:36:39;101203.28;;;13.31;100.00
3294;BME280;1659;51.470;6.770;2023-08-07T07:39:07;101201.50;;;13.32;100.00
3294;BME280;1659;51.470;6.770;2023-08-07T07:41:35;101211.22;;;13.33;100.00
3294;BME280;1659;51.470;6.770;2023-08-07T07:44:01;101204.13;;;13.33;100.00
3294;BME280;1659;51.470;6.770;2023-08-07T07:46:28;101212.94;;;13.35;100.00
3294;BME280;1659;51.470;6.770;2023-08-07T07:48:56;101216.44;;;13.36;100.00
3294;BME280;1659;51.470;6.770;2023-08-07T07:51:23;101220.84;;;13.38;100.00
3294;BME280;1659;51.470;6.770;2023-08-07T07:53:50;101226.03;;;13.41;100.00
3294;BME280;1659;51.470;6.770;2023-08-07T07:56:17;101232.97;;;13.49;100.00
3294;BME280;1659;51.470;6.770;2023-08-07T07:58:44;101240.78;;;13.55;100.00
3294;BME280;1659;51.470;6.770;2023-08-07T08:01:11;101241.56;;;13.60;100.00
3294;BME280;1659;51.470;6.770;2023-08-07T08:03:37;101245.88;;;13.64;100.00
3294;BME280;1659;51.470;6.770;2023-08-07T08:06:04;101250.16;;;13.70;100.00
3294;BME280;1659;51.470;6.770;2023-08-07T08:08:30;101249.22;;;13.72;100.00
3294;BME280;1659;51.470;6.770;2023-08-07T08:10:57;101260.66;;;13.76;100.00
3294;BME280;1659;51.470;6.770;2023-08-07T08:13:25;101256.97;;;13.82;100.00
3294;BME280;1659;51.470;6.770;2023-08-07T08:15:51;101259.59;;;13.83;100.00
3294;BME280;1659;51.470;6.770;2023-08-07T08:18:18;101274.47;;;13.90;100.00
3294;BME280;1659;51.470;6.770;2023-08-07T08:20:44;101267.19;;;13.98;100.00
3294;BME280;1659;51.470;6.770;2023-08-07T08:23:11;101277.66;;;14.05;100.00
3294;BME280;1659;51.470;6.770;2023-08-07T08:25:37;101278.50;;;14.07;100.00
3294;BME280;1659;51.470;6.770;2023-08-07T08:28:04;101273.09;;;14.10;100.00
3294;BME280;1659;51.470;6.770;2023-08-07T08:30:32;101288.03;;;14.15;100.00
3294;BME280;1659;51.470;6.770;2023-08-07T08:32:58;101291.34;;;14.24;100.00
3294;BME280;1659;51.470;6.770;2023-08-07T08:35:25;101277.91;;;14.30;100.00
3294;BME280;1659;51.470;6.770;2023-08-07T08:37:52;101285.69;;;14.38;100.00
3294;BME280;1659;51.470;6.770;2023-08-07T08:40:18;101294.34;;;14.46;100.00
3294;BME280;1659;51.470;6.770;2023-08-07T08:42:45;101288.69;;;14.60;100.00
3294;BME280;1659;51.470;6.770;2023-08-07T08:45:14;101294.53;;;14.72;100.00
3294;BME280;1659;51.470;6.770;2023-08-07T08:47:42;101311.03;;;14.85;100.00
3294;BME280;1659;51.470;6.770;2023-08-07T08:50:12;101310.72;;;14.96;100.00
3294;BME280;1659;51.470;6.770;2023-08-07T08:52:41;101294.91;;;15.21;100.00
3294;BME280;1659;51.470;6.770;2023-08-07T08:55:09;101295.09;;;15.45;100.00
3294;BME280;1659;51.470;6.770;2023-08-07T08:57:37;101306.53;;;15.78;100.00
3294;BME280;1659;51.470;6.770;2023-08-07T09:00:05;101305.88;;;15.98;100.00
3294;BME280;1659;51.470;6.770;2023-08-07T09:02:38;101299.72;;;16.23;100.00
3294;BME280;1659;51.470;6.770;2023-08-07T09:05:07;101299.44;;;17.08;100.00
3294;BME280;1659;51.470;6.770;2023-08-07T09:07:35;101298.97;;;17.66;100.00
3294;BME280;1659;51.470;6.770;2023-08-07T09:10:02;101298.31;;;18.05;100.00
3294;BME280;1659;51.470;6.770;2023-08-07T09:12:31;101288.81;;;18.40;100.00
3294;BME280;1659;51.470;6.770;2023-08-07T09:14:58;101295.91;;;18.82;100.00
3294;BME280;1659;51.470;6.770;2023-08-07T09:17:28;101301.81;;;19.10;100.00
3294;BME280;1659;51.470;6.770;2023-08-07T09:19:55;101316.38;;;18.83;97.17
3294;BME280;1659;51.470;6.770;2023-08-07T09:22:23;101334.66;;;18.31;97.18
3294;BME280;1659;51.470;6.770;2023-08-07T09:24:50;101330.38;;;17.83;99.18
3294;BME280;1659;51.470;6.770;2023-08-07T09:27:17;101351.22;;;17.27;100.00
3294;BME280;1659;51.470;6.770;2023-08-07T09:29:46;101343.56;;;16.68;100.00
3294;BME280;1659;51.470;6.770;2023-08-07T09:32:13;101350.53;;;16.20;100.00
3294;BME280;1659;51.470;6.770;2023-08-07T09:34:40;101346.75;;;15.99;100.00
3294;BME280;1659;51.470;6.770;2023-08-07T09:37:07;101353.81;;;16.00;100.00
3294;BME280;1659;51.470;6.770;2023-08-07T09:39:35;101354.41;;;16.10;100.00
3294;BME280;1659;51.470;6.770;2023-08-07T09:42:02;101363.84;;;16.20;100.00
3294;BME280;1659;51.470;6.770;2023-08-07T09:44:34;101350.53;;;16.20;100.00
3294;BME280;1659;51.470;6.770;2023-08-07T09:47:11;101358.19;;;16.29;100.00
3294;BME280;1659;51.470;6.770;2023-08-07T09:49:39;101361.38;;;16.40;100.00
3294;BME280;1659;51.470;6.770;2023-08-07T09:52:06;101365.06;;;16.63;100.00
3294;BME280;1659;51.470;6.770;2023-08-07T09:54:35;101357.16;;;16.87;100.00
3294;BME280;1659;51.470;6.770;2023-08-07T09:57:02;101365.47;;;17.51;100.00
3294;BME280;1659;51.470;6.770;2023-08-07T09:59:29;101368.41;;;18.13;100.00
3294;BME280;1659;51.470;6.770;2023-08-07T10:01:56;101355.31;;;18.49;98.51
3294;BME280;1659;51.470;6.770;2023-08-07T10:04:22;101353.63;;;18.90;98.35
3294;BME280;1659;51.470;6.770;2023-08-07T10:06:49;101360.84;;;18.88;95.03
3294;BME280;1659;51.470;6.770;2023-08-07T10:09:16;101359.88;;;19.09;95.90
3294;BME280;1659;51.470;6.770;2023-08-07T10:11:44;101357.03;;;19.52;95.26
3294;BME280;1659;51.470;6.770;2023-08-07T10:14:12;101360.38;;;19.95;94.97
3294;BME280;1659;51.470;6.770;2023-08-07T10:16:39;101355.84;;;20.14;93.15
3294;BME280;1659;51.470;6.770;2023-08-07T10:19:07;101359.47;;;19.96;92.17
3294;BME280;1659;51.470;6.770;2023-08-07T10:21:35;101349.47;;;19.80;93.01
3294;BME280;1659;51.470;6.770;2023-08-07T10:24:03;101352.56;;;19.52;92.92
3294;BME280;1659;51.470;6.770;2023-08-07T10:26:31;101361.16;;;19.21;94.07
3294;BME280;1659;51.470;6.770;2023-08-07T10:29:02;101349.25;;;18.87;94.88
3294;BME280;1659;51.470;6.770;2023-08-07T10:31:30;101354.97;;;18.57;95.29
3294;BME280;1659;51.470;6.770;2023-08-07T10:33:58;101352.59;;;18.29;95.59
3294;BME280;1659;51.470;6.770;2023-08-07T10:36:32;101365.16;;;18.05;95.89
3294;BME280;1659;51.470;6.770;2023-08-07T10:39:06;101382.69;;;17.66;95.03
3294;BME280;1659;51.470;6.770;2023-08-07T10:41:38;101392.56;;;17.17;94.88
3294;BME280;1659;51.470;6.770;2023-08-07T10:44:17;101401.22;;;16.72;95.87
3294;BME280;1659;51.470;6.770;2023-08-07T10:46:48;101400.53;;;16.40;96.91
3294;BME280;1659;51.470;6.770;2023-08-07T10:49:32;101398.84;;;16.09;97.61
3294;BME280;1659;51.470;6.770;2023-08-07T10:51:59;101398.59;;;15.89;98.28
3294;BME280;1659;51.470;6.770;2023-08-07T10:54:25;101400.53;;;15.83;99.18
3294;BME280;1659;51.470;6.770;2023-08-07T10:56:53;101405.56;;;15.93;99.70
3294;BME280;1659;51.470;6.770;2023-08-07T10:59:22;101395.13;;;16.41;99.99
3294;BME280;1659;51.470;6.770;2023-08-07T11:01:54;101387.75;;;17.27;98.99
3294;BME280;1659;51.470;6.770;2023-08-07T11:04:22;101382.13;;;18.05;97.35
3294;BME280;1659;51.470;6.770;2023-08-07T11:06:50;101380.78;;;18.80;95.86
3294;BME280;1659;51.470;6.770;2023-08-07T11:09:17;101379.38;;;19.52;95.21
3294;BME280;1659;51.470;6.770;2023-08-07T11:11:45;101387.22;;;19.95;93.32
3294;BME280;1659;51.470;6.770;2023-08-07T11:14:14;101382.63;;;19.97;92.79
3294;BME280;1659;51.470;6.770;2023-08-07T11:16:42;101389.09;;;19.93;91.75
3294;BME280;1659;51.470;6.770;2023-08-07T11:19:09;101397.66;;;19.82;92.35
3294;BME280;1659;51.470;6.770;2023-08-07T11:21:37;101400.25;;;19.65;92.23
3294;BME280;1659;51.470;6.770;2023-08-07T11:24:04;101406.56;;;19.24;92.40
3294;BME280;1659;51.470;6.770;2023-08-07T11:26:30;101419.09;;;18.82;93.12
3294;BME280;1659;51.470;6.770;2023-08-07T11:28:57;101429.63;;;18.43;93.47
3294;BME280;1659;51.470;6.770;2023-08-07T11:31:24;101435.22;;;18.15;93.98
3294;BME280;1659;51.470;6.770;2023-08-07T11:33:55;101429.72;;;17.96;94.59
3294;BME280;1659;51.470;6.770;2023-08-07T11:36:23;101417.38;;;18.15;95.27
3294;BME280;1659;51.470;6.770;2023-08-07T11:38:50;101424.72;;;18.75;93.71
3294;BME280;1659;51.470;6.770;2023-08-07T11:41:18;101416.31;;;19.46;92.69
3294;BME280;1659;51.470;6.770;2023-08-07T11:43:44;101410.69;;;20.09;90.87
3294;BME280;1659;51.470;6.770;2023-08-07T11:46:12;101403.69;;;20.60;88.91
3294;BME280;1659;51.470;6.770;2023-08-07T11:48:41;101413.38;;;20.64;87.84
3294;BME280;1659;51.470;6.770;2023-08-07T11:51:09;101411.38;;;20.68;86.68
3294;BME280;1659;51.470;6.770;2023-08-07T11:53:38;101409.44;;;20.52;86.34
3294;BME280;1659;51.470;6.770;2023-08-07T11:56:06;101414.38;;;20.79;86.14
3294;BME280;1659;51.470;6.770;2023-08-07T11:58:36;101418.94;;;21.29;84.33
3294;BME280;1659;51.470;6.770;2023-08-07T12:01:06;101422.47;;;21.30;83.38
3294;BME280;1659;51.470;6.770;2023-08-07T12:03:36;101414.09;;;21.54;83.60
3294;BME280;1659;51.470;6.770;2023-08-07T12:06:05;101418.03;;;22.12;83.16
3294;BME280;1659;51.470;6.770;2023-08-07T12:08:34;101401.75;;;22.61;81.47
3294;BME280;1659;51.470;6.770;2023-08-07T12:11:02;101410.16;;;22.71;78.98
3294;BME280;1659;51.470;6.770;2023-08-07T12:13:30;101412.75;;;22.72;77.16
3294;BME280;1659;51.470;6.770;2023-08-07T12:16:00;101414.38;;;22.75;76.76
3294;BME280;1659;51.470;6.770;2023-08-07T12:18:27;101408.06;;;22.76;76.45
3294;BME280;1659;51.470;6.770;2023-08-07T12:20:58;101413.06;;;22.82;75.01
3294;BME280;1659;51.470;6.770;2023-08-07T12:23:25;101412.63;;;22.90;74.29
3294;BME280;1659;51.470;6.770;2023-08-07T12:25:53;101407.81;;;22.95;74.20
3294;BME280;1659;51.470;6.770;2023-08-07T12:28:20;101415.47;;;22.87;74.79
3294;BME280;1659;51.470;6.770;2023-08-07T12:30:47;101415.66;;;22.53;73.35
3294;BME280;1659;51.470;6.770;2023-08-07T12:33:14;101428.19;;;22.06;72.04
3294;BME280;1659;51.470;6.770;2023-08-07T12:35:41;101428.09;;;21.92;72.38
3294;BME280;1659;51.470;6.770;2023-08-07T12:38:08;101423.34;;;21.97;71.83
3294;BME280;1659;51.470;6.770;2023-08-07T12:40:35;101432.00;;;21.86;72.00
3294;BME280;1659;51.470;6.770;2023-08-07T12:43:03;101434.78;;;21.69;71.66
3294;BME280;1659;51.470;6.770;2023-08-07T12:45:31;101439.06;;;21.38;72.08
3294;BME280;1659;51.470;6.770;2023-08-07T12:47:58;101441.16;;;21.16;72.81
3294;BME280;1659;51.470;6.770;2023-08-07T12:50:25;101429.16;;;20.88;73.06
3294;BME280;1659;51.470;6.770;2023-08-07T12:52:51;101422.91;;;20.70;73.23
3294;BME280;1659;51.470;6.770;2023-08-07T12:55:18;101424.28;;;20.79;73.20
3294;BME280;1659;51.470;6.770;2023-08-07T12:57:45;101421.19;;;21.04;72.68
3294;BME280;1659;51.470;6.770;2023-08-07T13:00:14;101422.41;;;21.65;71.36
3294;BME280;1659;51.470;6.770;2023-08-07T13:02:41;101414.72;;;22.22;69.62
3294;BME280;1659;51.470;6.770;2023-08-07T13:05:08;101415.72;;;22.68;68.31